sensor_id;sensor_type;location;lat;lon;timestamp;P1;durP1;ratioP1;P2;durP2;ratioP2
36799;SDS011;22752;51.960;5.886;2023-07-13T00:00:27;4.60;;;1.92;;
36799;SDS011;22752;51.960;5.886;2023-07-13T00:02:53;8.65;;;2.83;;
36799;SDS011;22752;51.960;5.886;2023-07-13T00:05:20;4.80;;;1.80;;
36799;SDS011;22752;51.960;5.886;2023-07-13T00:07:46;5.93;;;1.95;;
36799;SDS011;22752;51.960;5.886;2023-07-13T00:10:13;6.10;;;2.00;;
36799;SDS011;22752;51.960;5.886;2023-07-13T00:12:39;4.85;;;2.03;;
36799;SDS011;22752;51.960;5.886;2023-07-13T00:15:27;5.78;;;2.03;;
36799;SDS011;22752;51.960;5.886;2023-07-13T00:17:53;8.25;;;1.90;;
36799;SDS011;22752;51.960;5.886;2023-07-13T00:20:23;10.52;;;2.03;;
36799;SDS011;22752;51.960;5.886;2023-07-13T00:22:52;6.55;;;2.13;;
36799;SDS011;22752;51.960;5.886;2023-07-13T00:25:19;7.43;;;2.17;;
36799;SDS011;22752;51.960;5.886;2023-07-13T00:27:46;6.00;;;2.00;;
36799;SDS011;22752;51.960;5.886;2023-07-13T00:30:14;5.47;;;1.83;;
36799;SDS011;22752;51.960;5.886;2023-07-13T00:32:40;5.90;;;1.67;;
36799;SDS011;22752;51.960;5.886;2023-07-13T00:35:05;6.10;;;1.80;;
36799;SDS011;22752;51.960;5.886;2023-07-13T00:37:32;7.43;;;1.88;;
36799;SDS011;22752;51.960;5.886;2023-07-13T00:39:58;6.43;;;1.83;;
36799;SDS011;22752;51.960;5.886;2023-07-13T00:42:24;5.82;;;2.05;;
36799;SDS011;22752;51.960;5.886;2023-07-13T00:45:07;9.45;;;2.10;;
36799;SDS011;22752;51.960;5.886;2023-07-13T00:47:47;6.20;;;1.85;;
36799;SDS011;22752;51.960;5.886;2023-07-13T00:50:14;7.82;;;1.80;;
36799;SDS011;22752;51.960;5.886;2023-07-13T00:52:41;4.18;;;1.85;;
36799;SDS011;22752;51.960;5.886;2023-07-13T00:55:10;7.10;;;1.77;;
36799;SDS011;22752;51.960;5.886;2023-07-13T00:57:37;6.55;;;1.73;;
36799;SDS011;22752;51.960;5.886;2023-07-13T01:00:04;5.47;;;1.58;;
36799;SDS011;22752;51.960;5.886;2023-07-13T01:02:44;9.43;;;1.80;;
36799;SDS011;22752;51.960;5.886;2023-07-13T01:05:15;2.92;;;1.50;;
36799;SDS011;22752;51.960;5.886;2023-07-13T01:07:43;4.80;;;1.60;;
36799;SDS011;22752;51.960;5.886;2023-07-13T01:10:10;6.28;;;2.00;;
36799;SDS011;22752;51.960;5.886;2023-07-13T01:12:39;5.53;;;2.15;;
36799;SDS011;22752;51.960;5.886;2023-07-13T01:15:06;7.22;;;2.42;;
36799;SDS011;22752;51.960;5.886;2023-07-13T01:18:09;7.13;;;2.08;;
36799;SDS011;22752;51.960;5.886;2023-07-13T01:20:49;6.47;;;1.77;;
36799;SDS011;22752;51.960;5.886;2023-07-13T01:23:25;6.82;;;1.60;;
36799;SDS011;22752;51.960;5.886;2023-07-13T01:25:52;5.63;;;1.80;;
36799;SDS011;22752;51.960;5.886;2023-07-13T01:28:20;7.07;;;1.85;;
36799;SDS011;22752;51.960;5.886;2023-07-13T01:30:46;7.22;;;2.17;;
36799;SDS011;22752;51.960;5.886;2023-07-13T01:33:13;5.38;;;2.00;;
36799;SDS011;22752;51.960;5.886;2023-07-13T01:35:40;6.63;;;1.88;;
36799;SDS011;22752;51.960;5.886;2023-07-13T01:38:06;5.95;;;1.90;;
36799;SDS011;22752;51.960;5.886;2023-07-13T01:40:33;7.50;;;2.58;;
36799;SDS011;22752;51.960;5.886;2023-07-13T01:43:00;7.50;;;1.92;;
36799;SDS011;22752;51.960;5.886;2023-07-13T01:45:26;7.72;;;2.20;;
36799;SDS011;22752;51.960;5.886;2023-07-13T01:47:51;9.52;;;2.53;;
36799;SDS011;22752;51.960;5.886;2023-07-13T01:50:17;8.35;;;2.00;;
36799;SDS011;22752;51.960;5.886;2023-07-13T01:52:43;7.32;;;1.98;;
36799;SDS011;22752;51.960;5.886;2023-07-13T01:55:08;7.85;;;2.00;;
36799;SDS011;22752;51.960;5.886;2023-07-13T01:57:34;6.07;;;2.00;;
36799;SDS011;22752;51.960;5.886;2023-07-13T02:00:02;7.90;;;2.55;;
36799;SDS011;22752;51.960;5.886;2023-07-13T02:02:29;9.73;;;2.30;;
36799;SDS011;22752;51.960;5.886;2023-07-13T02:04:55;5.88;;;2.33;;
36799;SDS011;22752;51.960;5.886;2023-07-13T02:07:21;9.95;;;2.70;;
36799;SDS011;22752;51.960;5.886;2023-07-13T02:09:47;8.98;;;2.70;;
36799;SDS011;22752;51.960;5.886;2023-07-13T02:12:12;9.75;;;2.47;;
36799;SDS011;22752;51.960;5.886;2023-07-13T02:14:38;9.63;;;2.47;;
36799;SDS011;22752;51.960;5.886;2023-07-13T02:17:04;9.73;;;2.53;;
36799;SDS011;22752;51.960;5.886;2023-07-13T02:19:31;10.85;;;2.60;;
36799;SDS011;22752;51.960;5.886;2023-07-13T02:21:57;8.50;;;2.45;;
36799;SDS011;22752;51.960;5.886;2023-07-13T02:24:22;5.65;;;2.55;;
36799;SDS011;22752;51.960;5.886;2023-07-13T02:26:48;7.80;;;2.47;;
36799;SDS011;22752;51.960;5.886;2023-07-13T02:29:14;10.77;;;2.60;;
36799;SDS011;22752;51.960;5.886;2023-07-13T02:31:39;7.15;;;2.60;;
36799;SDS011;22752;51.960;5.886;2023-07-13T02:34:05;9.95;;;2.72;;
36799;SDS011;22752;51.960;5.886;2023-07-13T02:36:31;7.88;;;3.45;;
36799;SDS011;22752;51.960;5.886;2023-07-13T02:38:57;9.45;;;3.00;;
36799;SDS011;22752;51.960;5.886;2023-07-13T02:41:26;8.60;;;2.58;;
36799;SDS011;22752;51.960;5.886;2023-07-13T02:43:51;9.68;;;3.13;;
36799;SDS011;22752;51.960;5.886;2023-07-13T02:46:17;8.38;;;2.72;;
36799;SDS011;22752;51.960;5.886;2023-07-13T02:48:44;7.15;;;2.72;;
36799;SDS011;22752;51.960;5.886;2023-07-13T02:51:10;10.00;;;3.22;;
36799;SDS011;22752;51.960;5.886;2023-07-13T02:53:36;10.57;;;3.28;;
36799;SDS011;22752;51.960;5.886;2023-07-13T02:56:02;8.02;;;2.67;;
36799;SDS011;22752;51.960;5.886;2023-07-13T02:58:29;8.52;;;2.55;;
36799;SDS011;22752;51.960;5.886;2023-07-13T03:00:55;7.22;;;2.65;;
36799;SDS011;22752;51.960;5.886;2023-07-13T03:03:22;9.23;;;2.72;;
36799;SDS011;22752;51.960;5.886;2023-07-13T03:05:57;8.25;;;2.50;;
36799;SDS011;22752;51.960;5.886;2023-07-13T03:08:25;9.38;;;3.08;;
36799;SDS011;22752;51.960;5.886;2023-07-13T03:10:58;12.05;;;3.33;;
36799;SDS011;22752;51.960;5.886;2023-07-13T03:13:28;12.48;;;3.15;;
36799;SDS011;22752;51.960;5.886;2023-07-13T03:15:54;13.88;;;3.05;;
36799;SDS011;22752;51.960;5.886;2023-07-13T03:18:19;13.40;;;3.50;;
36799;SDS011;22752;51.960;5.886;2023-07-13T03:20:45;10.88;;;3.10;;
36799;SDS011;22752;51.960;5.886;2023-07-13T03:23:11;11.07;;;3.17;;
36799;SDS011;22752;51.960;5.886;2023-07-13T03:25:36;8.23;;;2.90;;
36799;SDS011;22752;51.960;5.886;2023-07-13T03:28:02;9.35;;;3.20;;
36799;SDS011;22752;51.960;5.886;2023-07-13T03:30:27;15.68;;;3.85;;
36799;SDS011;22752;51.960;5.886;2023-07-13T03:32:53;9.15;;;3.22;;
36799;SDS011;22752;51.960;5.886;2023-07-13T03:35:19;9.23;;;2.70;;
36799;SDS011;22752;51.960;5.886;2023-07-13T03:37:44;9.82;;;3.10;;
36799;SDS011;22752;51.960;5.886;2023-07-13T03:40:10;11.93;;;3.47;;
36799;SDS011;22752;51.960;5.886;2023-07-13T03:42:37;11.52;;;3.40;;
36799;SDS011;22752;51.960;5.886;2023-07-13T03:45:03;9.35;;;3.70;;
36799;SDS011;22752;51.960;5.886;2023-07-13T03:47:30;12.93;;;3.70;;
36799;SDS011;22752;51.960;5.886;2023-07-13T03:49:55;10.65;;;3.00;;
36799;SDS011;22752;51.960;5.886;2023-07-13T03:52:21;6.57;;;2.83;;
36799;SDS011;22752;51.960;5.886;2023-07-13T03:54:47;8.00;;;3.10;;
36799;SDS011;22752;51.960;5.886;2023-07-13T03:57:12;10.38;;;3.25;;
36799;SDS011;22752;51.960;5.886;2023-07-13T03:59:38;11.10;;;3.42;;
36799;SDS011;22752;51.960;5.886;2023-07-13T04:02:04;7.43;;;3.10;;
36799;SDS011;22752;51.960;5.886;2023-07-13T04:04:30;12.23;;;3.65;;
36799;SDS011;22752;51.960;5.886;2023-07-13T04:06:56;10.27;;;3.58;;
36799;SDS011;22752;51.960;5.886;2023-07-13T04:09:23;7.47;;;3.10;;
36799;SDS011;22752;51.960;5.886;2023-07-13T04:11:49;12.50;;;3.45;;
36799;SDS011;22752;51.960;5.886;2023-07-13T04:14:15;9.43;;;3.25;;
36799;SDS011;22752;51.960;5.886;2023-07-13T04:16:41;13.43;;;3.88;;
36799;SDS011;22752;51.960;5.886;2023-07-13T04:19:08;10.88;;;3.78;;
36799;SDS011;22752;51.960;5.886;2023-07-13T04:21:35;11.88;;;3.60;;
36799;SDS011;22752;51.960;5.886;2023-07-13T04:24:01;8.77;;;3.17;;
36799;SDS011;22752;51.960;5.886;2023-07-13T04:26:28;12.60;;;3.42;;
36799;SDS011;22752;51.960;5.886;2023-07-13T04:28:55;11.95;;;3.33;;
36799;SDS011;22752;51.960;5.886;2023-07-13T04:31:21;9.05;;;3.25;;
36799;SDS011;22752;51.960;5.886;2023-07-13T04:33:47;6.40;;;2.92;;
36799;SDS011;22752;51.960;5.886;2023-07-13T04:36:14;12.27;;;3.67;;
36799;SDS011;22752;51.960;5.886;2023-07-13T04:38:41;11.20;;;3.72;;
36799;SDS011;22752;51.960;5.886;2023-07-13T04:41:07;11.13;;;4.63;;
36799;SDS011;22752;51.960;5.886;2023-07-13T04:43:33;10.38;;;3.25;;
36799;SDS011;22752;51.960;5.886;2023-07-13T04:46:06;17.48;;;4.85;;
36799;SDS011;22752;51.960;5.886;2023-07-13T04:48:34;14.65;;;3.78;;
36799;SDS011;22752;51.960;5.886;2023-07-13T04:51:00;9.80;;;3.85;;
36799;SDS011;22752;51.960;5.886;2023-07-13T04:53:27;8.82;;;3.33;;
36799;SDS011;22752;51.960;5.886;2023-07-13T04:55:53;13.27;;;3.63;;
36799;SDS011;22752;51.960;5.886;2023-07-13T04:58:19;11.52;;;3.50;;
36799;SDS011;22752;51.960;5.886;2023-07-13T05:00:46;17.67;;;4.40;;
36799;SDS011;22752;51.960;5.886;2023-07-13T05:03:12;14.98;;;3.95;;
36799;SDS011;22752;51.960;5.886;2023-07-13T05:05:38;13.80;;;4.65;;
36799;SDS011;22752;51.960;5.886;2023-07-13T05:08:03;15.40;;;4.72;;
36799;SDS011;22752;51.960;5.886;2023-07-13T05:10:29;11.52;;;3.88;;
36799;SDS011;22752;51.960;5.886;2023-07-13T05:12:55;13.75;;;4.45;;
36799;SDS011;22752;51.960;5.886;2023-07-13T05:15:21;16.55;;;4.57;;
36799;SDS011;22752;51.960;5.886;2023-07-13T05:17:48;11.75;;;4.40;;
36799;SDS011;22752;51.960;5.886;2023-07-13T05:20:14;12.68;;;4.78;;
36799;SDS011;22752;51.960;5.886;2023-07-13T05:22:42;13.52;;;4.03;;
36799;SDS011;22752;51.960;5.886;2023-07-13T05:25:08;15.30;;;5.57;;
36799;SDS011;22752;51.960;5.886;2023-07-13T05:27:34;13.63;;;5.07;;
36799;SDS011;22752;51.960;5.886;2023-07-13T05:30:00;20.05;;;5.47;;
36799;SDS011;22752;51.960;5.886;2023-07-13T05:32:26;15.60;;;4.90;;
36799;SDS011;22752;51.960;5.886;2023-07-13T05:34:52;13.70;;;4.65;;
36799;SDS011;22752;51.960;5.886;2023-07-13T05:37:17;15.95;;;4.90;;
36799;SDS011;22752;51.960;5.886;2023-07-13T05:39:43;14.63;;;5.57;;
36799;SDS011;22752;51.960;5.886;2023-07-13T05:42:09;14.05;;;5.00;;
36799;SDS011;22752;51.960;5.886;2023-07-13T05:44:35;15.95;;;4.60;;
36799;SDS011;22752;51.960;5.886;2023-07-13T05:47:01;16.77;;;5.78;;
36799;SDS011;22752;51.960;5.886;2023-07-13T05:49:26;16.05;;;6.05;;
36799;SDS011;22752;51.960;5.886;2023-07-13T05:51:52;14.95;;;5.80;;
36799;SDS011;22752;51.960;5.886;2023-07-13T05:54:18;24.33;;;6.55;;
36799;SDS011;22752;51.960;5.886;2023-07-13T05:56:43;17.10;;;6.05;;
36799;SDS011;22752;51.960;5.886;2023-07-13T05:59:09;17.80;;;5.47;;
36799;SDS011;22752;51.960;5.886;2023-07-13T06:01:35;21.20;;;6.43;;
36799;SDS011;22752;51.960;5.886;2023-07-13T06:04:00;18.15;;;6.60;;
36799;SDS011;22752;51.960;5.886;2023-07-13T06:06:26;19.80;;;6.72;;
36799;SDS011;22752;51.960;5.886;2023-07-13T06:08:52;14.77;;;6.07;;
36799;SDS011;22752;51.960;5.886;2023-07-13T06:11:19;20.50;;;7.15;;
36799;SDS011;22752;51.960;5.886;2023-07-13T06:13:47;17.15;;;6.55;;
36799;SDS011;22752;51.960;5.886;2023-07-13T06:16:13;19.33;;;6.93;;
36799;SDS011;22752;51.960;5.886;2023-07-13T06:18:39;20.05;;;8.43;;
36799;SDS011;22752;51.960;5.886;2023-07-13T06:21:16;21.25;;;7.90;;
36799;SDS011;22752;51.960;5.886;2023-07-13T06:23:46;17.48;;;6.78;;
36799;SDS011;22752;51.960;5.886;2023-07-13T06:26:14;22.55;;;7.78;;
36799;SDS011;22752;51.960;5.886;2023-07-13T06:28:40;25.25;;;9.00;;
36799;SDS011;22752;51.960;5.886;2023-07-13T06:31:06;24.98;;;9.00;;
36799;SDS011;22752;51.960;5.886;2023-07-13T06:33:33;21.15;;;7.78;;
36799;SDS011;22752;51.960;5.886;2023-07-13T06:35:59;17.98;;;7.97;;
36799;SDS011;22752;51.960;5.886;2023-07-13T06:38:26;18.05;;;7.07;;
36799;SDS011;22752;51.960;5.886;2023-07-13T06:40:51;20.15;;;8.13;;
36799;SDS011;22752;51.960;5.886;2023-07-13T06:43:17;21.40;;;7.47;;
36799;SDS011;22752;51.960;5.886;2023-07-13T06:45:44;17.25;;;6.82;;
36799;SDS011;22752;51.960;5.886;2023-07-13T06:48:12;17.58;;;7.10;;
36799;SDS011;22752;51.960;5.886;2023-07-13T06:50:39;24.42;;;10.13;;
36799;SDS011;22752;51.960;5.886;2023-07-13T06:53:04;22.48;;;9.30;;
36799;SDS011;22752;51.960;5.886;2023-07-13T06:55:30;21.98;;;8.38;;
36799;SDS011;22752;51.960;5.886;2023-07-13T06:57:56;26.83;;;10.50;;
36799;SDS011;22752;51.960;5.886;2023-07-13T07:00:23;19.08;;;8.93;;
36799;SDS011;22752;51.960;5.886;2023-07-13T07:02:48;22.70;;;10.23;;
36799;SDS011;22752;51.960;5.886;2023-07-13T07:05:14;19.95;;;9.23;;
36799;SDS011;22752;51.960;5.886;2023-07-13T07:07:40;16.08;;;8.18;;
36799;SDS011;22752;51.960;5.886;2023-07-13T07:10:06;17.42;;;8.35;;
36799;SDS011;22752;51.960;5.886;2023-07-13T07:12:32;21.92;;;9.15;;
36799;SDS011;22752;51.960;5.886;2023-07-13T07:14:57;24.88;;;8.45;;
36799;SDS011;22752;51.960;5.886;2023-07-13T07:17:23;19.77;;;8.32;;
36799;SDS011;22752;51.960;5.886;2023-07-13T07:19:50;16.65;;;7.57;;
36799;SDS011;22752;51.960;5.886;2023-07-13T07:22:15;22.85;;;8.88;;
36799;SDS011;22752;51.960;5.886;2023-07-13T07:24:41;17.33;;;7.22;;
36799;SDS011;22752;51.960;5.886;2023-07-13T07:27:07;17.30;;;7.50;;
36799;SDS011;22752;51.960;5.886;2023-07-13T07:29:33;22.08;;;8.50;;
36799;SDS011;22752;51.960;5.886;2023-07-13T07:31:59;29.50;;;9.65;;
36799;SDS011;22752;51.960;5.886;2023-07-13T07:34:25;19.38;;;7.85;;
36799;SDS011;22752;51.960;5.886;2023-07-13T07:36:51;20.60;;;9.15;;
36799;SDS011;22752;51.960;5.886;2023-07-13T07:39:18;23.45;;;8.38;;
36799;SDS011;22752;51.960;5.886;2023-07-13T07:41:43;16.00;;;7.53;;
36799;SDS011;22752;51.960;5.886;2023-07-13T07:44:09;15.00;;;6.93;;
36799;SDS011;22752;51.960;5.886;2023-07-13T07:46:35;23.17;;;8.35;;
36799;SDS011;22752;51.960;5.886;2023-07-13T07:49:01;20.25;;;7.82;;
36799;SDS011;22752;51.960;5.886;2023-07-13T07:51:26;16.33;;;7.18;;
36799;SDS011;22752;51.960;5.886;2023-07-13T07:53:52;23.45;;;8.98;;
36799;SDS011;22752;51.960;5.886;2023-07-13T07:56:18;15.95;;;8.18;;
36799;SDS011;22752;51.960;5.886;2023-07-13T07:58:44;14.38;;;6.00;;
36799;SDS011;22752;51.960;5.886;2023-07-13T08:01:09;18.00;;;7.15;;
36799;SDS011;22752;51.960;5.886;2023-07-13T08:03:35;18.25;;;7.40;;
36799;SDS011;22752;51.960;5.886;2023-07-13T08:06:01;15.10;;;6.43;;
36799;SDS011;22752;51.960;5.886;2023-07-13T08:08:26;15.38;;;7.03;;
36799;SDS011;22752;51.960;5.886;2023-07-13T08:10:52;20.95;;;7.30;;
36799;SDS011;22752;51.960;5.886;2023-07-13T08:13:18;20.48;;;7.90;;
36799;SDS011;22752;51.960;5.886;2023-07-13T08:15:44;17.70;;;7.47;;
36799;SDS011;22752;51.960;5.886;2023-07-13T08:18:10;20.10;;;7.88;;
36799;SDS011;22752;51.960;5.886;2023-07-13T08:20:37;15.88;;;6.68;;
36799;SDS011;22752;51.960;5.886;2023-07-13T08:23:04;14.90;;;7.07;;
36799;SDS011;22752;51.960;5.886;2023-07-13T08:25:29;15.32;;;7.30;;
36799;SDS011;22752;51.960;5.886;2023-07-13T08:27:55;19.30;;;7.97;;
36799;SDS011;22752;51.960;5.886;2023-07-13T08:30:21;17.20;;;6.95;;
36799;SDS011;22752;51.960;5.886;2023-07-13T08:32:46;18.33;;;7.43;;
36799;SDS011;22752;51.960;5.886;2023-07-13T08:35:12;15.60;;;6.55;;
36799;SDS011;22752;51.960;5.886;2023-07-13T08:37:38;16.67;;;6.32;;
36799;SDS011;22752;51.960;5.886;2023-07-13T08:40:04;21.23;;;6.93;;
36799;SDS011;22752;51.960;5.886;2023-07-13T08:42:42;11.88;;;5.88;;
36799;SDS011;22752;51.960;5.886;2023-07-13T08:48:02;14.20;;;7.00;;
36799;SDS011;22752;51.960;5.886;2023-07-13T08:50:35;13.68;;;6.20;;
36799;SDS011;22752;51.960;5.886;2023-07-13T08:53:06;11.55;;;4.95;;
36799;SDS011;22752;51.960;5.886;2023-07-13T08:55:34;14.85;;;6.80;;
36799;SDS011;22752;51.960;5.886;2023-07-13T08:58:21;17.13;;;6.43;;
36799;SDS011;22752;51.960;5.886;2023-07-13T09:03:42;12.48;;;5.80;;
36799;SDS011;22752;51.960;5.886;2023-07-13T09:06:16;14.02;;;5.28;;
36799;SDS011;22752;51.960;5.886;2023-07-13T09:08:49;13.95;;;4.90;;
36799;SDS011;22752;51.960;5.886;2023-07-13T09:14:12;11.40;;;4.53;;
36799;SDS011;22752;51.960;5.886;2023-07-13T09:16:55;12.68;;;5.57;;
36799;SDS011;22752;51.960;5.886;2023-07-13T09:19:23;9.13;;;4.07;;
36799;SDS011;22752;51.960;5.886;2023-07-13T09:21:53;11.80;;;4.60;;
36799;SDS011;22752;51.960;5.886;2023-07-13T09:24:37;10.20;;;5.13;;
36799;SDS011;22752;51.960;5.886;2023-07-13T09:27:12;8.13;;;3.70;;
36799;SDS011;22752;51.960;5.886;2023-07-13T09:30:07;8.63;;;3.78;;
36799;SDS011;22752;51.960;5.886;2023-07-13T09:32:43;12.07;;;4.10;;
36799;SDS011;22752;51.960;5.886;2023-07-13T09:35:15;12.10;;;4.22;;
36799;SDS011;22752;51.960;5.886;2023-07-13T09:37:44;11.18;;;4.03;;
36799;SDS011;22752;51.960;5.886;2023-07-13T09:40:13;14.65;;;4.43;;
36799;SDS011;22752;51.960;5.886;2023-07-13T09:42:51;9.23;;;3.30;;
36799;SDS011;22752;51.960;5.886;2023-07-13T09:45:26;8.65;;;3.60;;
36799;SDS011;22752;51.960;5.886;2023-07-13T09:47:58;10.50;;;3.67;;
36799;SDS011;22752;51.960;5.886;2023-07-13T09:50:28;8.95;;;3.78;;
36799;SDS011;22752;51.960;5.886;2023-07-13T09:52:54;10.27;;;4.05;;
36799;SDS011;22752;51.960;5.886;2023-07-13T09:57:55;7.93;;;4.05;;
36799;SDS011;22752;51.960;5.886;2023-07-13T10:00:28;9.43;;;4.15;;
36799;SDS011;22752;51.960;5.886;2023-07-13T10:02:59;9.65;;;3.80;;
36799;SDS011;22752;51.960;5.886;2023-07-13T10:05:37;10.50;;;4.00;;
36799;SDS011;22752;51.960;5.886;2023-07-13T10:08:15;14.00;;;4.53;;
36799;SDS011;22752;51.960;5.886;2023-07-13T10:10:59;10.18;;;3.95;;
36799;SDS011;22752;51.960;5.886;2023-07-13T10:13:26;7.97;;;3.45;;
36799;SDS011;22752;51.960;5.886;2023-07-13T10:16:02;10.18;;;4.30;;
36799;SDS011;22752;51.960;5.886;2023-07-13T10:18:30;8.98;;;3.95;;
36799;SDS011;22752;51.960;5.886;2023-07-13T10:21:10;8.70;;;3.92;;
36799;SDS011;22752;51.960;5.886;2023-07-13T10:23:38;10.00;;;4.00;;
36799;SDS011;22752;51.960;5.886;2023-07-13T10:26:04;11.15;;;3.65;;
36799;SDS011;22752;51.960;5.886;2023-07-13T10:28:36;12.82;;;4.30;;
36799;SDS011;22752;51.960;5.886;2023-07-13T10:31:04;12.73;;;4.30;;
36799;SDS011;22752;51.960;5.886;2023-07-13T10:33:36;8.52;;;3.83;;
36799;SDS011;22752;51.960;5.886;2023-07-13T10:38:48;11.80;;;4.25;;
36799;SDS011;22752;51.960;5.886;2023-07-13T10:41:17;9.32;;;3.33;;
36799;SDS011;22752;51.960;5.886;2023-07-13T10:43:53;8.23;;;3.47;;
36799;SDS011;22752;51.960;5.886;2023-07-13T10:46:21;14.82;;;4.85;;
36799;SDS011;22752;51.960;5.886;2023-07-13T10:48:53;9.95;;;3.85;;
36799;SDS011;22752;51.960;5.886;2023-07-13T10:51:24;16.05;;;5.03;;
36799;SDS011;22752;51.960;5.886;2023-07-13T10:56:38;6.07;;;3.00;;
36799;SDS011;22752;51.960;5.886;2023-07-13T10:59:17;11.35;;;4.10;;
36799;SDS011;22752;51.960;5.886;2023-07-13T11:01:53;9.60;;;4.03;;
36799;SDS011;22752;51.960;5.886;2023-07-13T11:04:22;5.38;;;2.78;;
36799;SDS011;22752;51.960;5.886;2023-07-13T11:06:50;10.15;;;3.55;;
36799;SDS011;22752;51.960;5.886;2023-07-13T11:11:46;8.90;;;3.13;;
36799;SDS011;22752;51.960;5.886;2023-07-13T11:14:26;8.88;;;3.60;;
36799;SDS011;22752;51.960;5.886;2023-07-13T11:16:55;6.45;;;3.00;;
36799;SDS011;22752;51.960;5.886;2023-07-13T11:24:49;7.57;;;3.38;;
36799;SDS011;22752;51.960;5.886;2023-07-13T11:28:04;8.20;;;3.63;;
36799;SDS011;22752;51.960;5.886;2023-07-13T11:30:13;6.97;;;3.05;;
36799;SDS011;22752;51.960;5.886;2023-07-13T11:35:50;9.48;;;2.72;;
36799;SDS011;22752;51.960;5.886;2023-07-13T11:38:37;8.90;;;3.08;;
36799;SDS011;22752;51.960;5.886;2023-07-13T11:43:55;5.10;;;2.80;;
36799;SDS011;22752;51.960;5.886;2023-07-13T11:46:31;4.13;;;2.10;;
36799;SDS011;22752;51.960;5.886;2023-07-13T11:48:56;4.70;;;2.13;;
36799;SDS011;22752;51.960;5.886;2023-07-13T11:51:27;6.15;;;2.40;;
36799;SDS011;22752;51.960;5.886;2023-07-13T11:53:58;6.80;;;2.35;;
36799;SDS011;22752;51.960;5.886;2023-07-13T11:56:40;3.78;;;1.92;;
36799;SDS011;22752;51.960;5.886;2023-07-13T11:59:07;4.45;;;2.13;;
36799;SDS011;22752;51.960;5.886;2023-07-13T12:01:40;3.97;;;2.00;;
36799;SDS011;22752;51.960;5.886;2023-07-13T12:04:18;5.47;;;2.40;;
36799;SDS011;22752;51.960;5.886;2023-07-13T12:07:14;5.13;;;2.20;;
36799;SDS011;22752;51.960;5.886;2023-07-13T12:09:41;5.93;;;2.13;;
36799;SDS011;22752;51.960;5.886;2023-07-13T12:12:14;6.80;;;2.50;;
36799;SDS011;22752;51.960;5.886;2023-07-13T12:14:43;5.72;;;2.67;;
36799;SDS011;22752;51.960;5.886;2023-07-13T12:17:11;9.07;;;2.90;;
36799;SDS011;22752;51.960;5.886;2023-07-13T12:19:43;7.55;;;3.13;;
36799;SDS011;22752;51.960;5.886;2023-07-13T12:22:11;6.25;;;2.83;;
36799;SDS011;22752;51.960;5.886;2023-07-13T12:24:39;4.82;;;2.58;;
36799;SDS011;22752;51.960;5.886;2023-07-13T12:27:13;5.57;;;2.60;;
36799;SDS011;22752;51.960;5.886;2023-07-13T12:30:17;5.15;;;2.92;;
36799;SDS011;22752;51.960;5.886;2023-07-13T12:35:41;5.28;;;2.50;;
36799;SDS011;22752;51.960;5.886;2023-07-13T12:38:11;5.80;;;2.80;;
36799;SDS011;22752;51.960;5.886;2023-07-13T12:40:37;7.57;;;2.53;;
36799;SDS011;22752;51.960;5.886;2023-07-13T12:43:05;5.35;;;2.55;;
36799;SDS011;22752;51.960;5.886;2023-07-13T12:45:36;9.38;;;3.17;;
36799;SDS011;22752;51.960;5.886;2023-07-13T12:48:10;4.43;;;2.22;;
36799;SDS011;22752;51.960;5.886;2023-07-13T12:50:41;6.55;;;2.80;;
36799;SDS011;22752;51.960;5.886;2023-07-13T12:53:16;5.05;;;2.40;;
36799;SDS011;22752;51.960;5.886;2023-07-13T12:55:55;7.50;;;2.92;;
36799;SDS011;22752;51.960;5.886;2023-07-13T12:58:26;5.15;;;2.53;;
36799;SDS011;22752;51.960;5.886;2023-07-13T13:01:13;4.50;;;2.08;;
36799;SDS011;22752;51.960;5.886;2023-07-13T13:08:43;5.57;;;2.28;;
36799;SDS011;22752;51.960;5.886;2023-07-13T13:11:14;7.20;;;2.55;;
36799;SDS011;22752;51.960;5.886;2023-07-13T13:13:43;6.05;;;2.00;;
36799;SDS011;22752;51.960;5.886;2023-07-13T13:16:22;4.15;;;2.10;;
36799;SDS011;22752;51.960;5.886;2023-07-13T13:18:52;3.35;;;2.10;;
36799;SDS011;22752;51.960;5.886;2023-07-13T13:21:19;7.20;;;2.15;;
36799;SDS011;22752;51.960;5.886;2023-07-13T13:23:45;3.78;;;1.95;;
36799;SDS011;22752;51.960;5.886;2023-07-13T13:26:12;4.57;;;2.10;;
36799;SDS011;22752;51.960;5.886;2023-07-13T13:28:40;4.07;;;2.20;;
36799;SDS011;22752;51.960;5.886;2023-07-13T13:31:08;4.85;;;2.10;;
36799;SDS011;22752;51.960;5.886;2023-07-13T13:33:38;6.82;;;2.20;;
36799;SDS011;22752;51.960;5.886;2023-07-13T13:36:18;5.65;;;2.30;;
36799;SDS011;22752;51.960;5.886;2023-07-13T13:38:45;3.58;;;1.80;;
36799;SDS011;22752;51.960;5.886;2023-07-13T13:41:13;4.95;;;2.00;;
36799;SDS011;22752;51.960;5.886;2023-07-13T13:43:39;5.10;;;2.20;;
36799;SDS011;22752;51.960;5.886;2023-07-13T13:46:24;4.55;;;2.10;;
36799;SDS011;22752;51.960;5.886;2023-07-13T13:48:50;4.75;;;1.95;;
36799;SDS011;22752;51.960;5.886;2023-07-13T13:51:20;4.00;;;1.67;;
36799;SDS011;22752;51.960;5.886;2023-07-13T13:53:47;5.20;;;2.20;;
36799;SDS011;22752;51.960;5.886;2023-07-13T13:56:16;3.42;;;1.92;;
36799;SDS011;22752;51.960;5.886;2023-07-13T13:58:43;4.65;;;2.05;;
36799;SDS011;22752;51.960;5.886;2023-07-13T14:01:11;2.20;;;1.42;;
36799;SDS011;22752;51.960;5.886;2023-07-13T14:06:07;3.33;;;1.67;;
36799;SDS011;22752;51.960;5.886;2023-07-13T14:08:37;3.53;;;1.73;;
36799;SDS011;22752;51.960;5.886;2023-07-13T14:11:03;2.80;;;1.70;;
36799;SDS011;22752;51.960;5.886;2023-07-13T14:13:31;3.55;;;1.90;;
36799;SDS011;22752;51.960;5.886;2023-07-13T14:16:01;4.20;;;2.00;;
36799;SDS011;22752;51.960;5.886;2023-07-13T14:18:27;3.90;;;1.85;;
36799;SDS011;22752;51.960;5.886;2023-07-13T14:20:53;5.78;;;1.73;;
36799;SDS011;22752;51.960;5.886;2023-07-13T14:23:19;4.53;;;2.10;;
36799;SDS011;22752;51.960;5.886;2023-07-13T14:25:48;4.45;;;2.00;;
36799;SDS011;22752;51.960;5.886;2023-07-13T14:30:45;5.95;;;1.70;;
36799;SDS011;22752;51.960;5.886;2023-07-13T14:33:12;7.10;;;1.90;;
36799;SDS011;22752;51.960;5.886;2023-07-13T14:35:38;5.28;;;1.90;;
36799;SDS011;22752;51.960;5.886;2023-07-13T14:38:04;3.80;;;1.98;;
36799;SDS011;22752;51.960;5.886;2023-07-13T14:40:31;6.20;;;1.88;;
36799;SDS011;22752;51.960;5.886;2023-07-13T14:42:57;3.25;;;1.80;;
36799;SDS011;22752;51.960;5.886;2023-07-13T14:45:23;4.97;;;1.98;;
36799;SDS011;22752;51.960;5.886;2023-07-13T14:47:50;4.53;;;2.00;;
36799;SDS011;22752;51.960;5.886;2023-07-13T14:50:17;4.45;;;2.08;;
36799;SDS011;22752;51.960;5.886;2023-07-13T14:52:45;3.75;;;1.80;;
36799;SDS011;22752;51.960;5.886;2023-07-13T14:55:13;5.03;;;2.00;;
36799;SDS011;22752;51.960;5.886;2023-07-13T14:57:40;4.55;;;1.55;;
36799;SDS011;22752;51.960;5.886;2023-07-13T15:00:14;2.97;;;1.70;;
36799;SDS011;22752;51.960;5.886;2023-07-13T15:02:42;3.15;;;1.58;;
36799;SDS011;22752;51.960;5.886;2023-07-13T15:05:17;4.38;;;2.10;;
36799;SDS011;22752;51.960;5.886;2023-07-13T15:07:45;2.83;;;1.70;;
36799;SDS011;22752;51.960;5.886;2023-07-13T15:10:22;4.72;;;2.47;;
36799;SDS011;22752;51.960;5.886;2023-07-13T15:12:50;5.15;;;1.90;;
36799;SDS011;22752;51.960;5.886;2023-07-13T15:15:17;3.17;;;1.75;;
36799;SDS011;22752;51.960;5.886;2023-07-13T15:17:43;3.72;;;2.22;;
36799;SDS011;22752;51.960;5.886;2023-07-13T15:22:46;4.95;;;2.38;;
36799;SDS011;22752;51.960;5.886;2023-07-13T15:25:17;3.17;;;1.80;;
36799;SDS011;22752;51.960;5.886;2023-07-13T15:27:45;4.70;;;2.33;;
36799;SDS011;22752;51.960;5.886;2023-07-13T15:30:11;4.57;;;2.15;;
36799;SDS011;22752;51.960;5.886;2023-07-13T15:32:37;3.75;;;1.90;;
36799;SDS011;22752;51.960;5.886;2023-07-13T15:35:04;3.28;;;1.98;;